Terminal Aerodrome Forecast
Issued by NWS

Home | Current Version | Previous Version | Text Only | Print | Product List | Glossary On
Versions: 1 2 3 4 5 6 7 8 9 10 11 12 13 14 15 16 17 18 19 20 21
245
FTUS41 KRLX 110253 AAA
TAFCKB
TAF AMD
KCKB 110253Z 1103/1124 26009KT 3SM -SHSN OVC020
      TEMPO 1103/1105 2SM -SHSN OVC012
     FM110600 26010G16KT P6SM OVC020
     FM111200 27009KT P6SM BKN025
     FM112000 28009KT P6SM BKN035
     FM112300 28007KT P6SM SCT040=

USA.gov is the U.S. government's official web portal to all federal, state and local government web resources and services.